createdAt,value
2019-02-28T00:00:10.844Z,3.64
2019-02-28T00:05:06.912Z,4.05
2019-02-28T00:10:05.713Z,4.16
2019-02-28T00:15:04.884Z,4.46
2019-02-28T00:20:00.822Z,3.95
2019-02-28T00:24:56.725Z,3.79
2019-02-28T00:29:52.727Z,3.60
2019-02-28T00:34:48.639Z,3.51
2019-02-28T00:39:44.607Z,4.05
2019-02-28T00:44:43.621Z,3.86
2019-02-28T00:49:39.649Z,3.86
2019-02-28T00:54:35.554Z,3.46
2019-02-28T00:59:31.879Z,3.57
2019-02-28T01:04:29.838Z,3.62
2019-02-28T01:09:27.082Z,3.30
2019-02-28T01:14:24.002Z,3.14
2019-02-28T01:19:19.914Z,3.17
2019-02-28T01:24:15.824Z,3.12
2019-02-28T01:29:11.729Z,3.07
2019-02-28T01:34:07.638Z,3.35
2019-02-28T01:39:05.351Z,2.96
2019-02-28T01:44:02.652Z,3.31
2019-02-28T01:48:58.790Z,3.44
2019-02-28T01:53:54.696Z,2.85
2019-02-28T01:58:51.146Z,2.68
2019-02-28T02:03:47.270Z,2.57
2019-02-28T02:08:43.177Z,2.59
2019-02-28T02:13:39.085Z,2.49
2019-02-28T02:18:34.997Z,2.32
2019-02-28T02:23:31.022Z,2.22
2019-02-28T02:28:27.769Z,2.20
2019-02-28T02:33:23.909Z,2.60
2019-02-28T02:38:19.849Z,2.55
2019-02-28T02:43:15.786Z,2.14
2019-02-28T02:48:11.789Z,2.16
2019-02-28T02:53:07.699Z,2.15
2019-02-28T02:58:03.640Z,2.57
2019-02-28T03:02:59.553Z,2.69
2019-02-28T03:07:59.495Z,2.46
2019-02-28T03:12:53.404Z,2.22
2019-02-28T03:17:49.458Z,2.45
2019-02-28T03:22:47.480Z,2.14
2019-02-28T03:27:43.475Z,2.14
2019-02-28T03:32:42.367Z,2.08
2019-02-28T03:37:37.439Z,2.18
2019-02-28T03:42:33.342Z,2.00
2019-02-28T03:47:29.364Z,2.10
2019-02-28T03:52:25.270Z,1.85
2019-02-28T03:57:27.962Z,2.15
2019-02-28T04:02:22.248Z,1.77
2019-02-28T04:07:17.164Z,1.66
2019-02-28T04:12:13.191Z,1.59
2019-02-28T04:17:09.102Z,1.54
2019-02-28T04:22:05.030Z,1.58
2019-02-28T04:27:06.045Z,1.73
2019-02-28T04:31:59.518Z,2.04
2019-02-28T04:36:56.101Z,2.06
2019-02-28T04:41:52.659Z,1.71
2019-02-28T04:46:48.544Z,1.68
2019-02-28T04:51:44.531Z,1.52
2019-02-28T04:56:42.234Z,1.55
2019-02-28T05:01:38.863Z,1.27
2019-02-28T05:06:34.778Z,1.28
2019-02-28T05:11:31.716Z,1.73
2019-02-28T05:16:28.512Z,1.47
2019-02-28T05:21:24.435Z,1.43
2019-02-28T05:26:20.345Z,1.38
2019-02-28T05:31:16.280Z,1.56
2019-02-28T05:36:12.190Z,1.59
2019-02-28T05:41:08.104Z,1.50
2019-02-28T05:46:04.024Z,1.52
2019-02-28T05:50:59.933Z,1.52
2019-02-28T05:55:58.831Z,1.22
2019-02-28T06:00:53.658Z,1.09
2019-02-28T06:05:49.587Z,1.15
2019-02-28T06:10:45.492Z,1.66
2019-02-28T06:15:42.241Z,1.90
2019-02-28T06:20:38.218Z,1.79
2019-02-28T06:25:34.159Z,1.28
2019-02-28T06:30:30.095Z,1.25
2019-02-28T06:35:26.006Z,1.68
2019-02-28T06:40:21.931Z,2.03
2019-02-28T06:45:20.648Z,2.49
2019-02-28T06:50:16.865Z,2.77
2019-02-28T06:55:20.697Z,3.09
2019-02-28T07:00:16.812Z,3.01
2019-02-28T07:05:12.827Z,3.32
2019-02-28T07:10:16.126Z,3.78
2019-02-28T07:15:15.733Z,4.03
2019-02-28T07:20:13.844Z,4.36
2019-02-28T07:25:12.658Z,4.48
2019-02-28T07:30:17.157Z,3.97
2019-02-28T07:35:11.666Z,3.62
2019-02-28T07:40:15.749Z,3.74
2019-02-28T07:45:12.705Z,3.88
2019-02-28T07:50:14.510Z,4.27
2019-02-28T07:55:15.876Z,4.62
2019-02-28T08:00:18.292Z,5.04
2019-02-28T08:05:13.412Z,5.38
2019-02-28T08:10:47.931Z,5.73
2019-02-28T08:15:43.959Z,6.04
2019-02-28T08:20:40.174Z,6.68
2019-02-28T08:25:36.077Z,6.95
2019-02-28T08:30:33.236Z,7.24
2019-02-28T08:35:33.952Z,7.23
2019-02-28T08:40:27.316Z,6.74
2019-02-28T08:45:24.466Z,6.85
2019-02-28T08:50:24.303Z,7.02
2019-02-28T08:55:28.364Z,7.31
2019-02-28T09:00:19.370Z,7.40
2019-02-28T09:05:15.478Z,7.68
2019-02-28T09:10:37.427Z,7.87
2019-02-28T09:15:37.981Z,8.09
2019-02-28T09:20:33.863Z,8.30
2019-02-28T09:25:29.782Z,8.39
2019-02-28T09:30:32.249Z,8.64
2019-02-28T09:35:28.169Z,9.03
2019-02-28T09:40:25.844Z,8.99
2019-02-28T09:45:29.401Z,9.14
2019-02-28T09:50:25.679Z,9.03
2019-02-28T09:55:21.701Z,9.33
2019-02-28T10:00:19.240Z,9.47
2019-02-28T10:05:15.261Z,9.39
2019-02-28T10:10:21.063Z,9.36
2019-02-28T10:15:22.243Z,9.44
2019-02-28T10:20:26.553Z,9.91
2019-02-28T10:25:19.062Z,9.82
2019-02-28T10:30:30.518Z,10.17
2019-02-28T10:35:18.513Z,10.79
2019-02-28T10:40:18.791Z,10.61
2019-02-28T10:45:15.687Z,10.69
2019-02-28T10:50:33.227Z,10.75
2019-02-28T10:55:27.410Z,10.88
2019-02-28T11:00:29.378Z,10.89
2019-02-28T11:05:36.308Z,10.83
2019-02-28T11:10:37.571Z,10.91
2019-02-28T11:15:35.687Z,11.23
2019-02-28T11:20:33.263Z,11.10
2019-02-28T11:25:34.657Z,11.17
2019-02-28T11:30:30.146Z,11.36
2019-02-28T11:35:26.401Z,11.69
2019-02-28T11:40:25.207Z,11.52
2019-02-28T11:45:35.678Z,11.39
2019-02-28T11:50:32.486Z,11.63
2019-02-28T11:55:30.731Z,11.62
2019-02-28T12:00:36.811Z,11.89
2019-02-28T12:05:34.988Z,11.86
2019-02-28T12:10:34.086Z,12.02
2019-02-28T12:15:44.157Z,12.22
2019-02-28T12:20:40.215Z,12.25
2019-02-28T12:25:36.147Z,12.06
2019-02-28T12:30:33.163Z,12.18
2019-02-28T12:35:29.191Z,12.06
2019-02-28T12:40:30.898Z,12.10
2019-02-28T12:45:32.730Z,12.23
2019-02-28T12:50:30.240Z,12.45
2019-02-28T12:55:26.365Z,12.52
2019-02-28T13:00:28.443Z,13.02
2019-02-28T13:05:24.547Z,13.05
2019-02-28T13:10:26.760Z,12.85
2019-02-28T13:15:19.702Z,12.86
2019-02-28T13:20:22.602Z,12.63
2019-02-28T13:25:19.486Z,12.43
2019-02-28T13:30:18.469Z,12.45
2019-02-28T13:35:19.940Z,12.56
2019-02-28T13:40:22.543Z,12.55
2019-02-28T13:45:23.768Z,12.71
2019-02-28T13:50:25.302Z,13.06
2019-02-28T13:55:20.175Z,12.66
2019-02-28T14:00:35.440Z,12.81
2019-02-28T14:05:38.675Z,13.08
2019-02-28T14:10:29.796Z,13.21
2019-02-28T14:15:37.153Z,13.54
2019-02-28T14:20:33.251Z,13.70
2019-02-28T14:25:29.171Z,13.88
2019-02-28T14:30:25.600Z,13.99
2019-02-28T14:35:23.342Z,13.69
2019-02-28T14:40:19.366Z,13.78
2019-02-28T14:45:31.174Z,13.73
2019-02-28T14:50:27.062Z,13.71
2019-02-28T14:55:23.257Z,13.77
2019-02-28T15:00:24.187Z,13.85
2019-02-28T15:05:21.548Z,13.73
2019-02-28T15:10:21.734Z,13.87
2019-02-28T15:15:19.516Z,13.75
2019-02-28T15:20:17.791Z,13.81
2019-02-28T15:25:18.548Z,13.77
2019-02-28T15:30:18.153Z,13.77
2019-02-28T15:35:21.371Z,14.02
2019-02-28T15:40:27.890Z,13.89
2019-02-28T15:45:27.153Z,13.70
2019-02-28T15:50:24.955Z,13.57
2019-02-28T15:55:22.670Z,13.46
2019-02-28T16:00:30.170Z,13.41
2019-02-28T16:05:27.186Z,13.34
2019-02-28T16:10:35.836Z,13.29
2019-02-28T16:15:46.301Z,13.22
2019-02-28T16:20:47.271Z,13.15
2019-02-28T16:25:46.864Z,13.17
2019-02-28T16:30:42.171Z,13.09
2019-02-28T16:35:38.612Z,13.05
2019-02-28T16:40:34.982Z,13.05
2019-02-28T16:45:42.529Z,13.00
2019-02-28T16:50:42.456Z,12.95
2019-02-28T16:55:39.019Z,12.85
2019-02-28T17:00:35.322Z,12.91
2019-02-28T17:05:33.277Z,12.94
2019-02-28T17:10:33.109Z,12.82
2019-02-28T17:15:33.858Z,12.26
2019-02-28T17:20:30.440Z,12.02
2019-02-28T17:25:26.903Z,11.88
2019-02-28T17:30:32.999Z,11.79
2019-02-28T17:35:34.916Z,11.72
2019-02-28T17:40:31.926Z,11.68
2019-02-28T17:45:29.142Z,11.65
2019-02-28T17:56:22.554Z,11.56
2019-02-28T18:01:21.592Z,11.56
2019-02-28T18:06:37.036Z,11.54
2019-02-28T18:11:52.299Z,11.48
2019-02-28T18:17:05.986Z,11.43
2019-02-28T18:22:24.434Z,11.42
2019-02-28T18:27:46.800Z,11.38
2019-02-28T18:32:43.743Z,11.37
2019-02-28T18:37:40.516Z,11.31
2019-02-28T18:42:37.320Z,11.28
2019-02-28T18:47:36.043Z,11.23
2019-02-28T18:52:35.924Z,11.19
2019-02-28T18:57:33.820Z,11.10
2019-02-28T19:02:30.328Z,11.00
2019-02-28T19:07:26.645Z,11.00
2019-02-28T19:12:23.675Z,11.02
2019-02-28T19:17:20.389Z,10.99
2019-02-28T19:22:17.536Z,11.06
2019-02-28T19:27:14.136Z,11.12
2019-02-28T19:32:10.885Z,11.20
2019-02-28T19:37:11.557Z,11.11
2019-02-28T19:42:23.674Z,11.07
2019-02-28T19:47:25.756Z,11.08
2019-02-28T19:52:22.779Z,10.90
2019-02-28T19:57:20.243Z,11.17
2019-02-28T20:02:16.772Z,11.05
2019-02-28T20:07:14.886Z,11.06
2019-02-28T20:12:11.675Z,11.13
2019-02-28T20:17:08.489Z,10.89
2019-02-28T20:22:05.388Z,11.01
2019-02-28T20:27:01.576Z,10.83
2019-02-28T20:31:58.252Z,10.84
2019-02-28T20:36:57.982Z,11.03
2019-02-28T20:41:54.560Z,11.20
2019-02-28T20:46:51.698Z,11.01
2019-02-28T20:51:55.071Z,10.62
2019-02-28T20:56:47.495Z,10.37
2019-02-28T21:01:44.806Z,10.21
2019-02-28T21:06:42.221Z,10.19
2019-02-28T21:11:38.245Z,10.18
2019-02-28T21:16:37.432Z,10.21
2019-02-28T21:21:33.458Z,10.24
2019-02-28T21:26:32.011Z,10.17
2019-02-28T21:31:28.086Z,10.31
2019-02-28T21:36:24.101Z,10.39
2019-02-28T21:41:20.120Z,10.36
2019-02-28T21:46:21.816Z,10.14
2019-02-28T21:51:17.844Z,9.76
2019-02-28T21:56:13.764Z,9.62
2019-02-28T22:01:09.852Z,9.58
2019-02-28T22:06:05.851Z,9.54
2019-02-28T22:11:01.802Z,9.47
2019-02-28T22:15:57.716Z,9.45
2019-02-28T22:20:53.799Z,9.45
2019-02-28T22:25:49.915Z,9.46
2019-02-28T22:30:47.756Z,9.34
2019-02-28T22:35:45.675Z,9.33
2019-02-28T22:40:41.604Z,9.36
2019-02-28T22:45:38.213Z,9.36
2019-02-28T22:50:34.116Z,9.82
2019-02-28T22:55:30.213Z,10.02
2019-02-28T23:00:31.914Z,10.22
2019-02-28T23:05:27.842Z,10.27
2019-02-28T23:10:23.762Z,10.36
2019-02-28T23:15:21.188Z,10.28
2019-02-28T23:20:17.088Z,10.20
2019-02-28T23:25:13.057Z,10.20
2019-02-28T23:30:33.936Z,10.19
2019-02-28T23:35:32.169Z,10.14
2019-02-28T23:40:28.089Z,10.07
2019-02-28T23:45:25.899Z,10.09
2019-02-28T23:50:21.897Z,10.08
2019-02-28T23:55:17.817Z,10.11
